sensor_id;sensor_type;location;lat;lon;timestamp;P1;durP1;ratioP1;P2;durP2;ratioP2
38262;SDS011;24054;50.128;19.730;2022-08-30T00:03:17;12.55;;;6.85;;
38262;SDS011;24054;50.128;19.730;2022-08-30T00:05:44;10.27;;;6.82;;
38262;SDS011;24054;50.128;19.730;2022-08-30T00:08:12;9.50;;;6.93;;
38262;SDS011;24054;50.128;19.730;2022-08-30T00:10:39;10.55;;;6.85;;
38262;SDS011;24054;50.128;19.730;2022-08-30T00:13:09;8.27;;;6.25;;
38262;SDS011;24054;50.128;19.730;2022-08-30T00:15:37;8.85;;;6.28;;
38262;SDS011;24054;50.128;19.730;2022-08-30T00:18:04;9.60;;;6.55;;
38262;SDS011;24054;50.128;19.730;2022-08-30T00:20:32;8.45;;;6.50;;
38262;SDS011;24054;50.128;19.730;2022-08-30T00:23:00;9.23;;;6.25;;
38262;SDS011;24054;50.128;19.730;2022-08-30T00:25:28;8.38;;;6.50;;
38262;SDS011;24054;50.128;19.730;2022-08-30T00:27:55;9.03;;;6.10;;
38262;SDS011;24054;50.128;19.730;2022-08-30T00:30:24;9.68;;;6.70;;
38262;SDS011;24054;50.128;19.730;2022-08-30T00:32:51;10.68;;;6.88;;
38262;SDS011;24054;50.128;19.730;2022-08-30T00:35:19;9.80;;;6.05;;
38262;SDS011;24054;50.128;19.730;2022-08-30T00:37:47;9.57;;;6.65;;
38262;SDS011;24054;50.128;19.730;2022-08-30T00:40:15;7.77;;;5.83;;
38262;SDS011;24054;50.128;19.730;2022-08-30T00:42:44;7.30;;;5.90;;
38262;SDS011;24054;50.128;19.730;2022-08-30T00:45:13;8.55;;;6.10;;
38262;SDS011;24054;50.128;19.730;2022-08-30T00:47:45;10.23;;;6.35;;
38262;SDS011;24054;50.128;19.730;2022-08-30T00:50:14;11.15;;;5.95;;
38262;SDS011;24054;50.128;19.730;2022-08-30T00:52:44;8.40;;;6.22;;
38262;SDS011;24054;50.128;19.730;2022-08-30T00:55:13;8.77;;;5.70;;
38262;SDS011;24054;50.128;19.730;2022-08-30T00:57:42;9.48;;;6.13;;
38262;SDS011;24054;50.128;19.730;2022-08-30T01:00:12;8.20;;;5.60;;
38262;SDS011;24054;50.128;19.730;2022-08-30T01:02:40;7.18;;;5.40;;
38262;SDS011;24054;50.128;19.730;2022-08-30T01:05:09;8.40;;;6.00;;
38262;SDS011;24054;50.128;19.730;2022-08-30T01:07:38;9.57;;;5.70;;
38262;SDS011;24054;50.128;19.730;2022-08-30T01:10:07;7.70;;;5.70;;
38262;SDS011;24054;50.128;19.730;2022-08-30T01:12:37;9.07;;;6.68;;
38262;SDS011;24054;50.128;19.730;2022-08-30T01:15:07;9.40;;;5.57;;
38262;SDS011;24054;50.128;19.730;2022-08-30T01:17:37;6.47;;;5.00;;
38262;SDS011;24054;50.128;19.730;2022-08-30T01:20:06;6.60;;;5.28;;
38262;SDS011;24054;50.128;19.730;2022-08-30T01:22:38;9.35;;;5.80;;
38262;SDS011;24054;50.128;19.730;2022-08-30T01:25:11;8.77;;;5.38;;
38262;SDS011;24054;50.128;19.730;2022-08-30T01:27:40;7.78;;;5.45;;
38262;SDS011;24054;50.128;19.730;2022-08-30T01:30:10;7.85;;;5.55;;
38262;SDS011;24054;50.128;19.730;2022-08-30T01:32:39;7.10;;;5.15;;
38262;SDS011;24054;50.128;19.730;2022-08-30T01:35:08;7.72;;;5.45;;
38262;SDS011;24054;50.128;19.730;2022-08-30T01:37:36;7.78;;;5.47;;
38262;SDS011;24054;50.128;19.730;2022-08-30T01:40:04;7.53;;;5.50;;
38262;SDS011;24054;50.128;19.730;2022-08-30T01:42:34;7.03;;;5.30;;
38262;SDS011;24054;50.128;19.730;2022-08-30T01:45:01;8.07;;;5.97;;
38262;SDS011;24054;50.128;19.730;2022-08-30T01:47:28;7.80;;;5.03;;
38262;SDS011;24054;50.128;19.730;2022-08-30T01:49:55;6.63;;;5.00;;
38262;SDS011;24054;50.128;19.730;2022-08-30T01:52:22;7.85;;;5.53;;
38262;SDS011;24054;50.128;19.730;2022-08-30T01:54:51;7.38;;;4.70;;
38262;SDS011;24054;50.128;19.730;2022-08-30T01:57:20;7.22;;;5.38;;
38262;SDS011;24054;50.128;19.730;2022-08-30T01:59:52;8.32;;;4.75;;
38262;SDS011;24054;50.128;19.730;2022-08-30T02:02:21;7.32;;;5.07;;
38262;SDS011;24054;50.128;19.730;2022-08-30T02:04:51;5.75;;;5.15;;
38262;SDS011;24054;50.128;19.730;2022-08-30T02:07:19;6.63;;;4.95;;
38262;SDS011;24054;50.128;19.730;2022-08-30T02:09:46;8.02;;;4.95;;
38262;SDS011;24054;50.128;19.730;2022-08-30T02:12:13;6.38;;;5.07;;
38262;SDS011;24054;50.128;19.730;2022-08-30T02:14:40;6.60;;;5.13;;
38262;SDS011;24054;50.128;19.730;2022-08-30T02:17:09;6.97;;;4.93;;
38262;SDS011;24054;50.128;19.730;2022-08-30T02:19:38;6.80;;;4.80;;
38262;SDS011;24054;50.128;19.730;2022-08-30T02:22:06;7.55;;;5.35;;
38262;SDS011;24054;50.128;19.730;2022-08-30T02:24:33;7.68;;;4.75;;
38262;SDS011;24054;50.128;19.730;2022-08-30T02:27:01;5.93;;;4.35;;
38262;SDS011;24054;50.128;19.730;2022-08-30T02:29:28;6.18;;;4.65;;
38262;SDS011;24054;50.128;19.730;2022-08-30T02:31:55;5.00;;;4.30;;
38262;SDS011;24054;50.128;19.730;2022-08-30T02:34:23;6.35;;;4.43;;
38262;SDS011;24054;50.128;19.730;2022-08-30T02:36:50;7.25;;;4.82;;
38262;SDS011;24054;50.128;19.730;2022-08-30T02:39:17;5.47;;;4.45;;
38262;SDS011;24054;50.128;19.730;2022-08-30T02:41:44;5.97;;;4.32;;
38262;SDS011;24054;50.128;19.730;2022-08-30T02:44:11;6.47;;;4.30;;
38262;SDS011;24054;50.128;19.730;2022-08-30T02:46:38;5.65;;;4.70;;
38262;SDS011;24054;50.128;19.730;2022-08-30T02:49:05;6.25;;;5.00;;
38262;SDS011;24054;50.128;19.730;2022-08-30T02:51:35;5.32;;;4.22;;
38262;SDS011;24054;50.128;19.730;2022-08-30T02:54:03;5.15;;;3.85;;
38262;SDS011;24054;50.128;19.730;2022-08-30T02:56:30;7.18;;;4.38;;
38262;SDS011;24054;50.128;19.730;2022-08-30T02:58:57;6.57;;;4.38;;
38262;SDS011;24054;50.128;19.730;2022-08-30T03:01:23;5.88;;;4.13;;
38262;SDS011;24054;50.128;19.730;2022-08-30T03:03:50;6.78;;;4.68;;
38262;SDS011;24054;50.128;19.730;2022-08-30T03:06:18;5.50;;;4.45;;
38262;SDS011;24054;50.128;19.730;2022-08-30T03:08:46;5.57;;;4.32;;
38262;SDS011;24054;50.128;19.730;2022-08-30T03:11:13;5.32;;;4.03;;
38262;SDS011;24054;50.128;19.730;2022-08-30T03:13:40;7.28;;;4.95;;
38262;SDS011;24054;50.128;19.730;2022-08-30T03:16:07;5.30;;;4.40;;
38262;SDS011;24054;50.128;19.730;2022-08-30T03:18:34;5.47;;;4.30;;
38262;SDS011;24054;50.128;19.730;2022-08-30T03:21:01;5.38;;;4.30;;
38262;SDS011;24054;50.128;19.730;2022-08-30T03:23:28;6.80;;;4.90;;
38262;SDS011;24054;50.128;19.730;2022-08-30T03:25:57;6.00;;;4.15;;
38262;SDS011;24054;50.128;19.730;2022-08-30T03:28:24;5.63;;;4.30;;
38262;SDS011;24054;50.128;19.730;2022-08-30T03:30:50;4.90;;;4.00;;
38262;SDS011;24054;50.128;19.730;2022-08-30T03:33:18;6.20;;;3.97;;
38262;SDS011;24054;50.128;19.730;2022-08-30T03:35:45;5.22;;;4.43;;
38262;SDS011;24054;50.128;19.730;2022-08-30T03:38:13;6.15;;;3.97;;
38262;SDS011;24054;50.128;19.730;2022-08-30T03:40:40;4.70;;;3.70;;
38262;SDS011;24054;50.128;19.730;2022-08-30T03:43:09;4.53;;;3.67;;
38262;SDS011;24054;50.128;19.730;2022-08-30T03:45:36;5.97;;;4.05;;
38262;SDS011;24054;50.128;19.730;2022-08-30T03:48:03;4.88;;;4.15;;
38262;SDS011;24054;50.128;19.730;2022-08-30T03:50:30;6.78;;;4.25;;
38262;SDS011;24054;50.128;19.730;2022-08-30T03:55:26;6.95;;;3.85;;
38262;SDS011;24054;50.128;19.730;2022-08-30T03:57:53;5.00;;;3.80;;
38262;SDS011;24054;50.128;19.730;2022-08-30T04:00:22;4.72;;;3.70;;
38262;SDS011;24054;50.128;19.730;2022-08-30T04:02:49;5.68;;;4.10;;
38262;SDS011;24054;50.128;19.730;2022-08-30T04:05:16;5.47;;;3.60;;
38262;SDS011;24054;50.128;19.730;2022-08-30T04:07:43;5.10;;;3.80;;
38262;SDS011;24054;50.128;19.730;2022-08-30T04:10:10;5.38;;;3.80;;
38262;SDS011;24054;50.128;19.730;2022-08-30T04:12:37;4.13;;;3.60;;
38262;SDS011;24054;50.128;19.730;2022-08-30T04:15:05;4.45;;;3.80;;
38262;SDS011;24054;50.128;19.730;2022-08-30T04:17:35;6.53;;;3.80;;
38262;SDS011;24054;50.128;19.730;2022-08-30T04:20:03;6.53;;;3.95;;
38262;SDS011;24054;50.128;19.730;2022-08-30T04:22:30;4.30;;;3.72;;
38262;SDS011;24054;50.128;19.730;2022-08-30T04:24:57;6.63;;;4.10;;
38262;SDS011;24054;50.128;19.730;2022-08-30T04:27:25;4.18;;;3.58;;
38262;SDS011;24054;50.128;19.730;2022-08-30T04:29:52;6.82;;;4.28;;
38262;SDS011;24054;50.128;19.730;2022-08-30T04:32:20;5.22;;;3.45;;
38262;SDS011;24054;50.128;19.730;2022-08-30T04:34:48;4.97;;;3.85;;
38262;SDS011;24054;50.128;19.730;2022-08-30T04:39:42;6.85;;;3.67;;
38262;SDS011;24054;50.128;19.730;2022-08-30T04:42:10;7.00;;;3.40;;
38262;SDS011;24054;50.128;19.730;2022-08-30T04:44:37;5.18;;;3.58;;
38262;SDS011;24054;50.128;19.730;2022-08-30T04:47:04;4.75;;;3.67;;
38262;SDS011;24054;50.128;19.730;2022-08-30T04:49:34;4.43;;;3.58;;
38262;SDS011;24054;50.128;19.730;2022-08-30T04:52:02;5.97;;;3.80;;
38262;SDS011;24054;50.128;19.730;2022-08-30T04:54:30;4.30;;;3.72;;
38262;SDS011;24054;50.128;19.730;2022-08-30T04:56:57;5.03;;;3.60;;
38262;SDS011;24054;50.128;19.730;2022-08-30T04:59:24;5.97;;;4.15;;
38262;SDS011;24054;50.128;19.730;2022-08-30T05:01:52;4.45;;;3.63;;
38262;SDS011;24054;50.128;19.730;2022-08-30T05:04:20;5.55;;;3.83;;
38262;SDS011;24054;50.128;19.730;2022-08-30T05:06:46;6.65;;;3.90;;
38262;SDS011;24054;50.128;19.730;2022-08-30T05:09:15;5.97;;;4.22;;
38262;SDS011;24054;50.128;19.730;2022-08-30T05:11:42;4.72;;;3.70;;
38262;SDS011;24054;50.128;19.730;2022-08-30T05:14:10;5.05;;;3.58;;
38262;SDS011;24054;50.128;19.730;2022-08-30T05:16:37;5.07;;;3.60;;
38262;SDS011;24054;50.128;19.730;2022-08-30T05:19:05;6.43;;;3.60;;
38262;SDS011;24054;50.128;19.730;2022-08-30T05:21:33;5.25;;;3.97;;
38262;SDS011;24054;50.128;19.730;2022-08-30T05:24:00;4.90;;;3.67;;
38262;SDS011;24054;50.128;19.730;2022-08-30T05:26:29;4.18;;;3.63;;
38262;SDS011;24054;50.128;19.730;2022-08-30T05:28:57;4.15;;;3.40;;
38262;SDS011;24054;50.128;19.730;2022-08-30T05:31:26;4.22;;;3.22;;
38262;SDS011;24054;50.128;19.730;2022-08-30T05:33:54;4.72;;;3.35;;
38262;SDS011;24054;50.128;19.730;2022-08-30T05:36:22;4.22;;;3.53;;
38262;SDS011;24054;50.128;19.730;2022-08-30T05:38:51;5.85;;;3.45;;
38262;SDS011;24054;50.128;19.730;2022-08-30T05:41:18;5.20;;;3.65;;
38262;SDS011;24054;50.128;19.730;2022-08-30T05:43:47;3.80;;;3.20;;
38262;SDS011;24054;50.128;19.730;2022-08-30T05:46:17;7.00;;;3.13;;
38262;SDS011;24054;50.128;19.730;2022-08-30T05:51:13;3.70;;;2.97;;
38262;SDS011;24054;50.128;19.730;2022-08-30T05:53:43;4.18;;;3.38;;
38262;SDS011;24054;50.128;19.730;2022-08-30T05:56:11;4.47;;;3.38;;
38262;SDS011;24054;50.128;19.730;2022-08-30T05:58:40;5.60;;;3.80;;
38262;SDS011;24054;50.128;19.730;2022-08-30T06:01:18;6.85;;;3.95;;
38262;SDS011;24054;50.128;19.730;2022-08-30T06:03:46;6.97;;;4.28;;
38262;SDS011;24054;50.128;19.730;2022-08-30T06:06:13;4.80;;;3.60;;
38262;SDS011;24054;50.128;19.730;2022-08-30T06:08:40;6.28;;;4.63;;
38262;SDS011;24054;50.128;19.730;2022-08-30T06:11:10;10.73;;;5.25;;
38262;SDS011;24054;50.128;19.730;2022-08-30T06:13:37;8.20;;;5.07;;
38262;SDS011;24054;50.128;19.730;2022-08-30T06:16:05;8.53;;;5.10;;
38262;SDS011;24054;50.128;19.730;2022-08-30T06:18:33;6.10;;;4.47;;
38262;SDS011;24054;50.128;19.730;2022-08-30T06:21:00;9.75;;;5.75;;
38262;SDS011;24054;50.128;19.730;2022-08-30T06:23:28;9.95;;;5.38;;
38262;SDS011;24054;50.128;19.730;2022-08-30T06:25:55;8.77;;;5.60;;
38262;SDS011;24054;50.128;19.730;2022-08-30T06:28:22;7.75;;;5.70;;
38262;SDS011;24054;50.128;19.730;2022-08-30T06:30:51;12.20;;;6.75;;
38262;SDS011;24054;50.128;19.730;2022-08-30T06:33:19;33.58;;;13.63;;
38262;SDS011;24054;50.128;19.730;2022-08-30T06:35:47;49.20;;;19.23;;
38262;SDS011;24054;50.128;19.730;2022-08-30T06:38:14;82.13;;;29.42;;
38262;SDS011;24054;50.128;19.730;2022-08-30T06:40:42;114.32;;;41.70;;
38262;SDS011;24054;50.128;19.730;2022-08-30T06:43:09;116.55;;;42.90;;
38262;SDS011;24054;50.128;19.730;2022-08-30T06:45:36;135.43;;;45.63;;
38262;SDS011;24054;50.128;19.730;2022-08-30T06:48:03;120.50;;;44.85;;
38262;SDS011;24054;50.128;19.730;2022-08-30T06:50:31;117.18;;;42.08;;
38262;SDS011;24054;50.128;19.730;2022-08-30T06:52:59;101.28;;;36.67;;
38262;SDS011;24054;50.128;19.730;2022-08-30T06:55:30;93.40;;;37.40;;
38262;SDS011;24054;50.128;19.730;2022-08-30T06:57:57;90.43;;;33.65;;
38262;SDS011;24054;50.128;19.730;2022-08-30T07:00:24;75.30;;;32.28;;
38262;SDS011;24054;50.128;19.730;2022-08-30T07:02:51;81.05;;;31.48;;
38262;SDS011;24054;50.128;19.730;2022-08-30T07:05:19;74.65;;;29.45;;
38262;SDS011;24054;50.128;19.730;2022-08-30T07:10:16;64.80;;;28.00;;
38262;SDS011;24054;50.128;19.730;2022-08-30T07:15:10;53.78;;;25.02;;
38262;SDS011;24054;50.128;19.730;2022-08-30T07:17:38;62.50;;;27.90;;
38262;SDS011;24054;50.128;19.730;2022-08-30T07:20:26;49.03;;;18.73;;
38262;SDS011;24054;50.128;19.730;2022-08-30T07:22:53;27.15;;;12.95;;
38262;SDS011;24054;50.128;19.730;2022-08-30T07:25:22;27.27;;;11.45;;
38262;SDS011;24054;50.128;19.730;2022-08-30T07:27:49;16.30;;;9.05;;
38262;SDS011;24054;50.128;19.730;2022-08-30T07:30:17;15.90;;;7.97;;
38262;SDS011;24054;50.128;19.730;2022-08-30T07:32:46;14.50;;;7.85;;
38262;SDS011;24054;50.128;19.730;2022-08-30T07:35:13;13.98;;;6.88;;
38262;SDS011;24054;50.128;19.730;2022-08-30T07:37:40;14.05;;;6.03;;
38262;SDS011;24054;50.128;19.730;2022-08-30T07:40:08;12.85;;;6.25;;
38262;SDS011;24054;50.128;19.730;2022-08-30T07:45:05;9.65;;;6.13;;
38262;SDS011;24054;50.128;19.730;2022-08-30T07:47:33;10.48;;;5.80;;
38262;SDS011;24054;50.128;19.730;2022-08-30T07:50:00;8.93;;;5.45;;
38262;SDS011;24054;50.128;19.730;2022-08-30T07:52:28;11.00;;;6.50;;
38262;SDS011;24054;50.128;19.730;2022-08-30T07:54:55;13.43;;;6.43;;
38262;SDS011;24054;50.128;19.730;2022-08-30T07:57:23;9.27;;;5.60;;
38262;SDS011;24054;50.128;19.730;2022-08-30T07:59:57;10.07;;;5.43;;
38262;SDS011;24054;50.128;19.730;2022-08-30T08:02:24;8.02;;;5.18;;
38262;SDS011;24054;50.128;19.730;2022-08-30T08:04:53;10.98;;;5.70;;
38262;SDS011;24054;50.128;19.730;2022-08-30T08:07:24;8.95;;;5.45;;
38262;SDS011;24054;50.128;19.730;2022-08-30T08:09:56;11.75;;;6.00;;
38262;SDS011;24054;50.128;19.730;2022-08-30T08:12:26;7.78;;;5.13;;
38262;SDS011;24054;50.128;19.730;2022-08-30T08:14:56;9.88;;;5.78;;
38262;SDS011;24054;50.128;19.730;2022-08-30T08:17:27;7.78;;;4.95;;
38262;SDS011;24054;50.128;19.730;2022-08-30T08:19:54;10.20;;;5.50;;
38262;SDS011;24054;50.128;19.730;2022-08-30T08:22:22;7.97;;;5.33;;
38262;SDS011;24054;50.128;19.730;2022-08-30T08:27:18;9.00;;;5.22;;
38262;SDS011;24054;50.128;19.730;2022-08-30T08:29:46;7.10;;;5.32;;
38262;SDS011;24054;50.128;19.730;2022-08-30T08:32:15;10.38;;;5.85;;
38262;SDS011;24054;50.128;19.730;2022-08-30T08:34:47;8.88;;;6.18;;
38262;SDS011;24054;50.128;19.730;2022-08-30T08:37:14;9.85;;;6.55;;
38262;SDS011;24054;50.128;19.730;2022-08-30T08:39:43;12.88;;;6.85;;
38262;SDS011;24054;50.128;19.730;2022-08-30T08:42:15;14.05;;;6.80;;
38262;SDS011;24054;50.128;19.730;2022-08-30T08:44:58;10.45;;;6.72;;
38262;SDS011;24054;50.128;19.730;2022-08-30T08:47:34;9.68;;;6.70;;
38262;SDS011;24054;50.128;19.730;2022-08-30T08:50:07;13.85;;;8.52;;
38262;SDS011;24054;50.128;19.730;2022-08-30T08:52:42;12.93;;;7.50;;
38262;SDS011;24054;50.128;19.730;2022-08-30T08:55:36;9.40;;;6.93;;
38262;SDS011;24054;50.128;19.730;2022-08-30T08:58:14;14.38;;;7.20;;
38262;SDS011;24054;50.128;19.730;2022-08-30T09:00:49;14.20;;;7.60;;
38262;SDS011;24054;50.128;19.730;2022-08-30T09:03:21;13.70;;;7.85;;
38262;SDS011;24054;50.128;19.730;2022-08-30T09:05:51;15.95;;;7.75;;
38262;SDS011;24054;50.128;19.730;2022-08-30T09:08:21;13.57;;;7.72;;
38262;SDS011;24054;50.128;19.730;2022-08-30T09:10:54;11.05;;;7.07;;
38262;SDS011;24054;50.128;19.730;2022-08-30T09:13:28;16.55;;;7.53;;
38262;SDS011;24054;50.128;19.730;2022-08-30T09:15:58;12.68;;;6.47;;
38262;SDS011;24054;50.128;19.730;2022-08-30T09:18:42;10.77;;;6.40;;
38262;SDS011;24054;50.128;19.730;2022-08-30T09:21:11;9.50;;;6.07;;
38262;SDS011;24054;50.128;19.730;2022-08-30T09:23:45;10.65;;;6.55;;
38262;SDS011;24054;50.128;19.730;2022-08-30T09:26:15;7.50;;;5.22;;
38262;SDS011;24054;50.128;19.730;2022-08-30T09:28:55;9.77;;;5.57;;
38262;SDS011;24054;50.128;19.730;2022-08-30T09:31:32;8.30;;;4.97;;
38262;SDS011;24054;50.128;19.730;2022-08-30T09:34:16;7.68;;;4.75;;
38262;SDS011;24054;50.128;19.730;2022-08-30T09:36:46;7.90;;;5.50;;
38262;SDS011;24054;50.128;19.730;2022-08-30T09:39:16;6.00;;;4.45;;
38262;SDS011;24054;50.128;19.730;2022-08-30T09:41:47;8.13;;;4.78;;
38262;SDS011;24054;50.128;19.730;2022-08-30T09:44:17;8.40;;;5.05;;
38262;SDS011;24054;50.128;19.730;2022-08-30T09:46:48;9.10;;;5.25;;
38262;SDS011;24054;50.128;19.730;2022-08-30T09:52:10;7.55;;;4.40;;
38262;SDS011;24054;50.128;19.730;2022-08-30T09:57:16;7.10;;;4.38;;
38262;SDS011;24054;50.128;19.730;2022-08-30T09:59:52;8.10;;;4.10;;
38262;SDS011;24054;50.128;19.730;2022-08-30T10:02:28;5.30;;;3.90;;
38262;SDS011;24054;50.128;19.730;2022-08-30T10:05:17;5.75;;;3.88;;
38262;SDS011;24054;50.128;19.730;2022-08-30T10:07:52;6.65;;;3.95;;
38262;SDS011;24054;50.128;19.730;2022-08-30T10:10:27;7.13;;;4.40;;
38262;SDS011;24054;50.128;19.730;2022-08-30T10:13:00;4.43;;;3.83;;
38262;SDS011;24054;50.128;19.730;2022-08-30T10:15:37;4.65;;;3.75;;
38262;SDS011;24054;50.128;19.730;2022-08-30T10:18:12;3.90;;;3.47;;
38262;SDS011;24054;50.128;19.730;2022-08-30T10:20:52;4.77;;;3.50;;
38262;SDS011;24054;50.128;19.730;2022-08-30T10:23:27;4.05;;;3.63;;
38262;SDS011;24054;50.128;19.730;2022-08-30T10:26:05;3.67;;;3.30;;
38262;SDS011;24054;50.128;19.730;2022-08-30T10:28:39;4.35;;;3.58;;
38262;SDS011;24054;50.128;19.730;2022-08-30T10:31:11;4.85;;;3.50;;
38262;SDS011;24054;50.128;19.730;2022-08-30T10:33:44;3.80;;;3.35;;
38262;SDS011;24054;50.128;19.730;2022-08-30T10:36:19;4.10;;;3.28;;
38262;SDS011;24054;50.128;19.730;2022-08-30T10:38:52;4.45;;;3.30;;
38262;SDS011;24054;50.128;19.730;2022-08-30T10:41:23;3.72;;;3.10;;
38262;SDS011;24054;50.128;19.730;2022-08-30T10:44:00;5.38;;;3.67;;
38262;SDS011;24054;50.128;19.730;2022-08-30T10:46:33;3.75;;;3.45;;
38262;SDS011;24054;50.128;19.730;2022-08-30T10:49:08;4.35;;;3.65;;
38262;SDS011;24054;50.128;19.730;2022-08-30T10:51:49;5.10;;;3.78;;
38262;SDS011;24054;50.128;19.730;2022-08-30T10:54:25;5.13;;;4.30;;
38262;SDS011;24054;50.128;19.730;2022-08-30T10:57:06;10.63;;;6.30;;
38262;SDS011;24054;50.128;19.730;2022-08-30T10:59:33;12.27;;;8.20;;
38262;SDS011;24054;50.128;19.730;2022-08-30T11:02:11;12.60;;;8.05;;
38262;SDS011;24054;50.128;19.730;2022-08-30T11:08:01;13.88;;;8.27;;
38262;SDS011;24054;50.128;19.730;2022-08-30T11:10:37;10.00;;;7.43;;
38262;SDS011;24054;50.128;19.730;2022-08-30T11:13:13;10.50;;;7.60;;
38262;SDS011;24054;50.128;19.730;2022-08-30T11:15:54;11.73;;;7.45;;
38262;SDS011;24054;50.128;19.730;2022-08-30T11:18:24;10.18;;;8.23;;
38262;SDS011;24054;50.128;19.730;2022-08-30T11:21:14;10.40;;;7.70;;
38262;SDS011;24054;50.128;19.730;2022-08-30T11:23:57;9.88;;;7.20;;
38262;SDS011;24054;50.128;19.730;2022-08-30T11:29:35;12.38;;;7.45;;
38262;SDS011;24054;50.128;19.730;2022-08-30T11:35:11;9.68;;;6.15;;
38262;SDS011;24054;50.128;19.730;2022-08-30T11:41:07;8.80;;;5.85;;
38262;SDS011;24054;50.128;19.730;2022-08-30T11:43:49;9.65;;;5.47;;
38262;SDS011;24054;50.128;19.730;2022-08-30T11:46:20;5.95;;;5.05;;
38262;SDS011;24054;50.128;19.730;2022-08-30T11:49:02;5.88;;;5.10;;
38262;SDS011;24054;50.128;19.730;2022-08-30T11:52:11;7.65;;;4.95;;
38262;SDS011;24054;50.128;19.730;2022-08-30T11:54:53;6.05;;;4.80;;
38262;SDS011;24054;50.128;19.730;2022-08-30T11:57:47;7.20;;;4.75;;
38262;SDS011;24054;50.128;19.730;2022-08-30T12:00:26;8.80;;;4.75;;
38262;SDS011;24054;50.128;19.730;2022-08-30T12:02:57;7.20;;;5.20;;
38262;SDS011;24054;50.128;19.730;2022-08-30T12:17:23;5.28;;;4.10;;
38262;SDS011;24054;50.128;19.730;2022-08-30T12:20:13;6.88;;;4.60;;
38262;SDS011;24054;50.128;19.730;2022-08-30T12:22:48;5.35;;;3.88;;
38262;SDS011;24054;50.128;19.730;2022-08-30T12:25:19;4.75;;;4.07;;
38262;SDS011;24054;50.128;19.730;2022-08-30T12:30:43;6.45;;;4.68;;
38262;SDS011;24054;50.128;19.730;2022-08-30T12:33:12;7.03;;;4.43;;
38262;SDS011;24054;50.128;19.730;2022-08-30T12:35:50;6.78;;;4.13;;
38262;SDS011;24054;50.128;19.730;2022-08-30T12:38:19;7.90;;;4.70;;
38262;SDS011;24054;50.128;19.730;2022-08-30T12:40:48;6.18;;;4.85;;
38262;SDS011;24054;50.128;19.730;2022-08-30T12:43:21;5.20;;;4.18;;
38262;SDS011;24054;50.128;19.730;2022-08-30T12:45:57;6.70;;;3.97;;
38262;SDS011;24054;50.128;19.730;2022-08-30T12:48:32;5.00;;;3.75;;
38262;SDS011;24054;50.128;19.730;2022-08-30T12:51:01;6.85;;;4.70;;
38262;SDS011;24054;50.128;19.730;2022-08-30T12:53:32;5.03;;;4.47;;
38262;SDS011;24054;50.128;19.730;2022-08-30T12:56:04;4.85;;;3.83;;
38262;SDS011;24054;50.128;19.730;2022-08-30T12:58:36;5.47;;;4.22;;
38262;SDS011;24054;50.128;19.730;2022-08-30T13:03:59;5.47;;;3.90;;
38262;SDS011;24054;50.128;19.730;2022-08-30T13:06:35;4.18;;;3.78;;
38262;SDS011;24054;50.128;19.730;2022-08-30T13:09:08;6.40;;;4.30;;
38262;SDS011;24054;50.128;19.730;2022-08-30T13:11:48;4.85;;;4.00;;
38262;SDS011;24054;50.128;19.730;2022-08-30T13:17:09;6.93;;;3.97;;
38262;SDS011;24054;50.128;19.730;2022-08-30T13:19:54;6.35;;;4.00;;
38262;SDS011;24054;50.128;19.730;2022-08-30T13:22:24;6.03;;;4.13;;
38262;SDS011;24054;50.128;19.730;2022-08-30T13:24:53;5.38;;;3.67;;
38262;SDS011;24054;50.128;19.730;2022-08-30T13:27:21;5.15;;;3.83;;
38262;SDS011;24054;50.128;19.730;2022-08-30T13:29:48;4.32;;;3.58;;
38262;SDS011;24054;50.128;19.730;2022-08-30T13:32:19;4.20;;;3.80;;
38262;SDS011;24054;50.128;19.730;2022-08-30T13:34:47;6.03;;;3.50;;
38262;SDS011;24054;50.128;19.730;2022-08-30T13:37:17;3.83;;;3.10;;
38262;SDS011;24054;50.128;19.730;2022-08-30T13:39:46;5.75;;;3.58;;
38262;SDS011;24054;50.128;19.730;2022-08-30T13:42:13;4.20;;;3.53;;
38262;SDS011;24054;50.128;19.730;2022-08-30T13:44:40;4.22;;;3.60;;
38262;SDS011;24054;50.128;19.730;2022-08-30T13:47:08;5.88;;;3.42;;
38262;SDS011;24054;50.128;19.730;2022-08-30T13:49:39;5.18;;;3.40;;
38262;SDS011;24054;50.128;19.730;2022-08-30T13:52:09;3.40;;;3.10;;
38262;SDS011;24054;50.128;19.730;2022-08-30T13:54:38;6.10;;;4.03;;
38262;SDS011;24054;50.128;19.730;2022-08-30T13:57:05;4.95;;;3.63;;
38262;SDS011;24054;50.128;19.730;2022-08-30T13:59:32;4.55;;;3.65;;
38262;SDS011;24054;50.128;19.730;2022-08-30T14:01:59;3.60;;;3.05;;
38262;SDS011;24054;50.128;19.730;2022-08-30T14:04:27;6.93;;;2.75;;
38262;SDS011;24054;50.128;19.730;2022-08-30T14:06:56;3.95;;;3.00;;
38262;SDS011;24054;50.128;19.730;2022-08-30T14:11:50;3.20;;;2.90;;
38262;SDS011;24054;50.128;19.730;2022-08-30T14:14:17;3.58;;;3.00;;
38262;SDS011;24054;50.128;19.730;2022-08-30T14:16:44;4.70;;;3.08;;
38262;SDS011;24054;50.128;19.730;2022-08-30T14:19:12;5.70;;;2.80;;
38262;SDS011;24054;50.128;19.730;2022-08-30T14:21:40;8.63;;;3.13;;
38262;SDS011;24054;50.128;19.730;2022-08-30T14:24:09;5.15;;;2.70;;
38262;SDS011;24054;50.128;19.730;2022-08-30T14:26:37;3.88;;;2.30;;
38262;SDS011;24054;50.128;19.730;2022-08-30T14:29:08;2.33;;;2.10;;
38262;SDS011;24054;50.128;19.730;2022-08-30T14:31:37;3.17;;;2.28;;
38262;SDS011;24054;50.128;19.730;2022-08-30T14:34:05;2.72;;;2.30;;
38262;SDS011;24054;50.128;19.730;2022-08-30T14:36:34;2.60;;;1.90;;
38262;SDS011;24054;50.128;19.730;2022-08-30T14:39:02;2.70;;;1.75;;
38262;SDS011;24054;50.128;19.730;2022-08-30T14:41:32;1.85;;;1.60;;
38262;SDS011;24054;50.128;19.730;2022-08-30T14:44:00;4.13;;;1.92;;
38262;SDS011;24054;50.128;19.730;2022-08-30T14:46:28;3.45;;;2.05;;
38262;SDS011;24054;50.128;19.730;2022-08-30T14:48:57;2.03;;;1.60;;
38262;SDS011;24054;50.128;19.730;2022-08-30T14:51:25;3.00;;;2.20;;
38262;SDS011;24054;50.128;19.730;2022-08-30T14:53:52;3.97;;;1.67;;
38262;SDS011;24054;50.128;19.730;2022-08-30T14:56:20;2.55;;;1.90;;
38262;SDS011;24054;50.128;19.730;2022-08-30T14:58:50;2.40;;;1.90;;
38262;SDS011;24054;50.128;19.730;2022-08-30T15:01:24;2.17;;;1.90;;
38262;SDS011;24054;50.128;19.730;2022-08-30T15:03:52;2.53;;;1.67;;
38262;SDS011;24054;50.128;19.730;2022-08-30T15:06:19;2.67;;;1.95;;
38262;SDS011;24054;50.128;19.730;2022-08-30T15:08:46;3.35;;;1.83;;
38262;SDS011;24054;50.128;19.730;2022-08-30T15:11:14;3.25;;;1.90;;
38262;SDS011;24054;50.128;19.730;2022-08-30T15:13:43;1.80;;;1.70;;
38262;SDS011;24054;50.128;19.730;2022-08-30T15:16:14;2.92;;;2.03;;
38262;SDS011;24054;50.128;19.730;2022-08-30T15:18:43;2.53;;;1.90;;
38262;SDS011;24054;50.128;19.730;2022-08-30T15:21:11;2.58;;;1.90;;
38262;SDS011;24054;50.128;19.730;2022-08-30T15:23:38;2.22;;;1.80;;
38262;SDS011;24054;50.128;19.730;2022-08-30T15:26:08;2.08;;;1.88;;
38262;SDS011;24054;50.128;19.730;2022-08-30T15:28:35;3.85;;;1.80;;
38262;SDS011;24054;50.128;19.730;2022-08-30T15:31:03;2.35;;;1.83;;
38262;SDS011;24054;50.128;19.730;2022-08-30T15:33:31;2.28;;;2.08;;
38262;SDS011;24054;50.128;19.730;2022-08-30T15:38:26;4.43;;;1.92;;
38262;SDS011;24054;50.128;19.730;2022-08-30T15:40:54;3.50;;;2.40;;
38262;SDS011;24054;50.128;19.730;2022-08-30T15:43:24;2.97;;;2.15;;
38262;SDS011;24054;50.128;19.730;2022-08-30T15:45:54;3.85;;;2.20;;
38262;SDS011;24054;50.128;19.730;2022-08-30T15:48:21;2.40;;;2.20;;
38262;SDS011;24054;50.128;19.730;2022-08-30T15:50:52;2.47;;;2.15;;